Time;durP1;ratioP1;P1;durP2;ratioP2;P2;SDS_P1;SDS_P2;PMS_P1;PMS_P2;Temp;Humidity;BMP_temperature;BMP_pressure;BME280_temperature;BME280_humidity;BME280_pressure;Samples;Min_cycle;Max_cycle;Signal;HPM_P1;HPM_P2
2022/10/04 00:01:51;;;;;;;3.83;2.10;;;;;;;;;;6246450;23;20020;-76
2022/10/04 00:04:22;;;;;;;8.43;2.60;;;;;;;;;;6246423;23;20377;-75
2022/10/04 00:06:54;;;;;;;4.28;2.42;;;;;;;;;;6246567;23;20087;-76
2022/10/04 00:09:24;;;;;;;5.43;2.50;;;;;;;;;;6246307;23;20346;-76
2022/10/04 00:11:53;;;;;;;4.53;2.35;;;;;;;;;;6246210;23;20039;-75
2022/10/04 00:14:35;;;;;;;5.20;2.25;;;;;;;;;;6246189;23;20095;-75
2022/10/04 00:17:10;;;;;;;5.18;1.90;;;;;;;;;;6246258;23;20016;-75
2022/10/04 00:19:38;;;;;;;;;;;;;;;;;;6246655;23;20442;-76
2022/10/04 00:22:07;;;;;;;4.18;2.30;;;;;;;;;;6246083;23;19916;-75
2022/10/04 00:24:35;;;;;;;6.85;2.40;;;;;;;;;;6245999;23;20011;-75
2022/10/04 00:27:22;;;;;;;6.35;2.38;;;;;;;;;;6246149;23;20020;-75
2022/10/04 00:30:01;;;;;;;3.30;2.35;;;;;;;;;;6246046;23;20031;-77
2022/10/04 00:32:39;;;;;;;5.78;2.50;;;;;;;;;;6246158;23;20083;-75
2022/10/04 00:35:25;;;;;;;4.70;2.50;;;;;;;;;;6246118;23;20024;-75
2022/10/04 00:37:57;;;;;;;5.78;2.40;;;;;;;;;;6245774;23;20016;-75
2022/10/04 00:40:28;;;;;;;5.88;2.45;;;;;;;;;;6245753;23;20035;-73
2022/10/04 00:43:04;;;;;;;5.70;2.50;;;;;;;;;;6246020;23;20051;-75
2022/10/04 00:45:35;;;;;;;6.05;2.53;;;;;;;;;;6245796;23;20020;-75
2022/10/04 00:48:02;;;;;;;6.22;2.53;;;;;;;;;;6246206;23;20008;-74
2022/10/04 00:50:46;;;;;;;4.78;2.30;;;;;;;;;;6245818;23;20064;-75
2022/10/04 00:53:21;;;;;;;4.82;2.38;;;;;;;;;;6245870;23;20009;-74
2022/10/04 00:55:54;;;;;;;6.55;2.53;;;;;;;;;;6245840;23;20020;-74
2022/10/04 00:58:26;;;;;;;4.35;2.30;;;;;;;;;;6245717;23;20047;-75
2022/10/04 01:00:55;;;;;;;6.00;2.25;;;;;;;;;;6246100;23;20020;-75
2022/10/04 01:03:48;;;;;;;6.22;2.40;;;;;;;;;;6246102;23;20337;-74
2022/10/04 01:06:16;;;;;;;4.82;2.65;;;;;;;;;;6241638;23;20027;-75
2022/10/04 01:08:49;;;;;;;5.80;2.45;;;;;;;;;;6245599;23;20023;-75
2022/10/04 01:11:18;;;;;;;5.03;2.53;;;;;;;;;;6245815;23;20015;-74
2022/10/04 01:13:49;;;;;;;8.57;2.17;;;;;;;;;;6245678;23;20070;-76
2022/10/04 01:16:18;;;;;;;3.67;1.90;;;;;;;;;;6245515;23;20016;-74
2022/10/04 01:18:46;;;;;;;3.00;2.13;;;;;;;;;;6245468;23;20020;-75
2022/10/04 01:21:19;;;;;;;7.88;2.28;;;;;;;;;;6245487;23;20035;-74
2022/10/04 01:23:51;;;;;;;3.90;2.00;;;;;;;;;;6245535;23;20493;-75
2022/10/04 01:26:28;;;;;;;4.75;2.20;;;;;;;;;;6245288;23;20020;-74
2022/10/04 01:29:00;;;;;;;5.47;2.60;;;;;;;;;;6245538;23;20016;-75
2022/10/04 01:31:29;;;;;;;6.78;2.30;;;;;;;;;;6245388;23;20016;-75
2022/10/04 01:33:56;;;;;;;5.13;2.30;;;;;;;;;;6245491;23;20482;-75
2022/10/04 01:36:24;;;;;;;5.60;2.50;;;;;;;;;;6245534;23;20023;-74
2022/10/04 01:38:51;;;;;;;7.65;2.58;;;;;;;;;;6218470;23;20020;-75
2022/10/04 01:41:21;;;;;;;4.95;2.45;;;;;;;;;;6245513;23;20083;-75
2022/10/04 01:43:51;;;;;;;4.25;2.47;;;;;;;;;;6219043;23;20016;-75
2022/10/04 01:46:31;;;;;;;5.43;2.58;;;;;;;;;;6245636;23;20039;-76
2022/10/04 01:49:01;;;;;;;4.63;2.40;;;;;;;;;;6218458;23;20397;-74
2022/10/04 01:51:30;;;;;;;4.07;2.58;;;;;;;;;;6245327;23;20020;-74
2022/10/04 01:54:02;;;;;;;7.22;2.40;;;;;;;;;;6245279;23;20529;-76
2022/10/04 01:56:33;;;;;;;4.32;2.25;;;;;;;;;;6245361;23;20018;-76
2022/10/04 01:59:05;;;;;;;4.35;2.28;;;;;;;;;;6245230;23;20016;-76
2022/10/04 02:01:42;;;;;;;6.70;2.55;;;;;;;;;;6245396;23;20092;-76
2022/10/04 02:04:15;;;;;;;7.05;2.80;;;;;;;;;;6245308;23;20024;-76
2022/10/04 02:06:53;;;;;;;8.65;2.60;;;;;;;;;;6245243;23;20044;-76
2022/10/04 02:09:23;;;;;;;6.60;2.80;;;;;;;;;;6245358;23;20051;-76
2022/10/04 02:11:52;;;;;;;6.75;2.72;;;;;;;;;;6245253;23;20376;-76
2022/10/04 02:14:22;;;;;;;6.82;2.78;;;;;;;;;;6245292;23;20358;-76
2022/10/04 02:16:52;;;;;;;3.40;3.00;;;;;;;;;;6245648;23;20034;-75
2022/10/04 02:19:22;;;;;;;6.03;2.58;;;;;;;;;;6245179;23;20114;-74
2022/10/04 02:21:51;;;;;;;6.05;3.00;;;;;;;;;;6247061;23;20022;-76
2022/10/04 02:24:19;;;;;;;4.53;2.28;;;;;;;;;;6247205;23;20377;-76
2022/10/04 02:26:50;;;;;;;8.93;2.70;;;;;;;;;;6247389;23;20465;-76
2022/10/04 02:29:18;;;;;;;8.07;2.85;;;;;;;;;;6247285;23;20082;-75
2022/10/04 02:34:33;;;;;;;3.17;2.30;;;;;;;;;;6247402;23;20027;-76
2022/10/04 02:37:02;;;;;;;4.80;2.30;;;;;;;;;;6220561;23;20012;-75
2022/10/04 02:39:42;;;;;;;5.43;2.70;;;;;;;;;;6220281;23;20418;-76
2022/10/04 02:42:10;;;;;;;4.82;3.40;;;;;;;;;;6220267;23;20346;-76
2022/10/04 02:44:41;;;;;;;4.85;2.58;;;;;;;;;;6247087;23;20016;-76
2022/10/04 02:47:13;;;;;;;3.97;2.35;;;;;;;;;;6247154;23;20017;-76
2022/10/04 02:49:45;;;;;;;5.72;2.60;;;;;;;;;;6247195;23;20016;-76
2022/10/04 02:52:15;;;;;;;4.85;2.60;;;;;;;;;;6246899;23;20020;-75
2022/10/04 02:54:55;;;;;;;9.23;4.05;;;;;;;;;;6246994;23;20066;-76
2022/10/04 02:57:23;;;;;;;4.43;3.00;;;;;;;;;;6247286;23;20078;-76
2022/10/04 02:59:51;;;;;;;4.07;2.75;;;;;;;;;;6246916;23;20016;-75
2022/10/04 03:02:21;;;;;;;4.53;2.70;;;;;;;;;;6246979;23;20311;-74
2022/10/04 03:04:59;;;;;;;5.97;2.80;;;;;;;;;;6246903;23;20020;-76
2022/10/04 03:07:27;;;;;;;4.18;2.75;;;;;;;;;;6247086;23;20012;-75
2022/10/04 03:09:54;;;;;;;6.28;2.85;;;;;;;;;;6246859;23;20473;-75
2022/10/04 03:12:22;;;;;;;4.15;2.70;;;;;;;;;;6247233;23;20356;-76
2022/10/04 03:14:52;;;;;;;6.30;3.25;;;;;;;;;;6247025;23;20559;-76
2022/10/04 03:17:19;;;;;;;6.07;3.70;;;;;;;;;;6247044;23;20016;-76
2022/10/04 03:19:49;;;;;;;8.82;4.15;;;;;;;;;;6246627;23;20052;-76
2022/10/04 03:22:17;;;;;;;8.35;3.00;;;;;;;;;;6246933;23;20016;-75
2022/10/04 03:24:46;;;;;;;4.22;2.90;;;;;;;;;;6246494;23;20016;-76
2022/10/04 03:27:16;;;;;;;4.80;2.63;;;;;;;;;;6245248;23;20416;-75
2022/10/04 03:29:43;;;;;;;5.63;3.35;;;;;;;;;;6246791;23;20450;-76
2022/10/04 03:32:13;;;;;;;7.15;4.60;;;;;;;;;;6246239;23;20045;-76
2022/10/04 03:34:42;;;;;;;6.43;3.60;;;;;;;;;;6246668;23;20428;-77
2022/10/04 03:37:15;;;;;;;4.57;3.40;;;;;;;;;;6246753;23;20039;-76
2022/10/04 03:39:45;;;;;;;4.82;3.20;;;;;;;;;;6246351;23;20020;-77
2022/10/04 03:42:17;;;;;;;5.93;3.30;;;;;;;;;;6246531;23;20012;-76
2022/10/04 03:44:45;;;;;;;5.97;3.03;;;;;;;;;;6244919;23;20040;-76
2022/10/04 03:47:19;;;;;;;9.00;3.15;;;;;;;;;;6246318;23;20070;-75
2022/10/04 03:49:47;;;;;;;5.75;3.05;;;;;;;;;;6245886;23;20070;-76
2022/10/04 03:52:20;;;;;;;4.97;2.97;;;;;;;;;;6246336;23;20012;-76
2022/10/04 03:54:51;;;;;;;5.60;3.08;;;;;;;;;;6246349;23;20020;-77
2022/10/04 03:57:18;;;;;;;5.57;2.78;;;;;;;;;;6246369;23;20035;-76
2022/10/04 03:59:46;;;;;;;5.10;2.85;;;;;;;;;;6246291;23;20043;-76
2022/10/04 04:02:20;;;;;;;5.65;2.95;;;;;;;;;;6246421;23;20434;-76
2022/10/04 04:04:49;;;;;;;3.30;2.92;;;;;;;;;;6246138;23;20020;-76
2022/10/04 04:07:25;;;;;;;4.68;2.70;;;;;;;;;;6246601;23;20015;-76
2022/10/04 04:09:59;;;;;;;5.50;3.13;;;;;;;;;;6219772;23;20345;-76
2022/10/04 04:12:37;;;;;;;6.10;3.00;;;;;;;;;;6246300;23;20023;-76
2022/10/04 04:15:06;;;;;;;7.13;3.15;;;;;;;;;;6246227;23;20082;-77
2022/10/04 04:17:34;;;;;;;8.07;3.03;;;;;;;;;;6246158;23;20027;-76
2022/10/04 04:20:03;;;;;;;7.35;3.35;;;;;;;;;;6245959;23;20027;-76
2022/10/04 04:22:35;;;;;;;5.03;3.30;;;;;;;;;;6246039;23;20016;-75
2022/10/04 04:25:04;;;;;;;9.48;3.20;;;;;;;;;;6245846;23;20020;-75
2022/10/04 04:27:35;;;;;;;8.65;3.30;;;;;;;;;;6246074;23;20012;-75
2022/10/04 04:30:03;;;;;;;11.48;4.03;;;;;;;;;;6245647;23;20020;-75
2022/10/04 04:32:33;;;;;;;8.80;4.40;;;;;;;;;;6245845;23;20516;-75
2022/10/04 04:35:07;;;;;;;6.85;4.07;;;;;;;;;;6245565;23;20074;-75
2022/10/04 04:37:35;;;;;;;10.50;5.43;;;;;;;;;;6219467;23;20012;-73
2022/10/04 04:40:32;;;;;;;8.85;7.13;;;;;;;;;;6245807;23;20465;-73
2022/10/04 04:43:01;;;;;;;9.57;7.00;;;;;;;;;;6221941;23;20134;-75
2022/10/04 04:45:30;;;;;;;11.77;6.20;;;;;;;;;;6245531;23;20012;-73
2022/10/04 04:48:00;;;;;;;6.93;4.65;;;;;;;;;;6245615;23;20016;-73
2022/10/04 04:50:39;;;;;;;8.05;4.38;;;;;;;;;;6245623;23;20012;-73
2022/10/04 04:53:30;;;;;;;6.40;3.55;;;;;;;;;;6246144;23;20015;-74
2022/10/04 04:56:00;;;;;;;5.13;3.40;;;;;;;;;;6230952;23;20024;-73
2022/10/04 04:58:40;;;;;;;5.25;3.33;;;;;;;;;;6245762;23;20016;-74
2022/10/04 05:01:14;;;;;;;5.25;3.50;;;;;;;;;;6245817;23;20434;-73
2022/10/04 05:03:42;;;;;;;6.05;2.80;;;;;;;;;;6218961;23;20020;-75
2022/10/04 05:06:23;;;;;;;6.20;2.55;;;;;;;;;;6219206;23;20027;-74
2022/10/04 05:08:51;;;;;;;5.53;2.83;;;;;;;;;;6246057;23;20016;-75
2022/10/04 05:11:20;;;;;;;6.13;3.00;;;;;;;;;;6245590;23;20046;-72
2022/10/04 05:13:48;;;;;;;5.38;2.40;;;;;;;;;;6244766;23;20020;-72
2022/10/04 05:16:18;;;;;;;4.13;2.53;;;;;;;;;;6244569;23;20069;-72
2022/10/04 05:18:46;;;;;;;5.13;2.92;;;;;;;;;;6245526;23;20062;-72
2022/10/04 05:21:20;;;;;;;5.32;2.92;;;;;;;;;;6245700;23;20376;-73
2022/10/04 05:23:47;;;;;;;5.97;2.95;;;;;;;;;;6246023;23;20008;-72
2022/10/04 05:26:19;;;;;;;4.28;2.67;;;;;;;;;;6245428;23;20389;-73
2022/10/04 05:28:46;;;;;;;7.93;4.47;;;;;;;;;;6245597;23;20022;-73
2022/10/04 05:31:28;;;;;;;6.90;3.20;;;;;;;;;;6245457;23;20012;-74
2022/10/04 05:33:57;;;;;;;4.88;3.10;;;;;;;;;;6245949;23;20009;-73
2022/10/04 05:36:44;;;;;;;6.38;3.25;;;;;;;;;;6245414;23;20016;-73
2022/10/04 05:39:26;;;;;;;4.85;2.88;;;;;;;;;;6218981;23;20515;-73
2022/10/04 05:41:57;;;;;;;5.43;3.40;;;;;;;;;;6245531;23;20020;-73
2022/10/04 05:44:26;;;;;;;9.00;3.17;;;;;;;;;;6245409;23;20453;-73
2022/10/04 05:46:59;;;;;;;8.80;3.42;;;;;;;;;;6218602;23;20016;-73
2022/10/04 05:49:33;;;;;;;6.28;3.60;;;;;;;;;;6245337;23;20020;-73
2022/10/04 05:52:12;;;;;;;4.45;3.10;;;;;;;;;;6245558;23;20012;-73
2022/10/04 05:54:40;;;;;;;5.15;2.58;;;;;;;;;;6245323;23;20092;-73
2022/10/04 05:57:14;;;;;;;4.70;2.70;;;;;;;;;;6218831;23;20016;-73
2022/10/04 06:00:00;;;;;;;4.85;2.80;;;;;;;;;;6245375;23;20020;-73
2022/10/04 06:02:57;;;;;;;6.07;3.03;;;;;;;;;;6245413;23;20024;-73
2022/10/04 06:05:43;;;;;;;6.38;3.30;;;;;;;;;;6245615;23;20395;-73
2022/10/04 06:08:16;;;;;;;4.53;2.70;;;;;;;;;;6246034;23;20439;-73
2022/10/04 06:10:52;;;;;;;7.97;2.65;;;;;;;;;;6246094;23;20012;-72
2022/10/04 06:13:27;;;;;;;4.70;2.20;;;;;;;;;;6246055;23;20382;-72
2022/10/04 06:16:07;;;;;;;4.85;3.60;;;;;;;;;;6246169;23;20066;-72
2022/10/04 06:18:53;;;;;;;6.20;4.07;;;;;;;;;;6246185;23;20021;-71
2022/10/04 06:21:34;;;;;;;5.78;3.85;;;;;;;;;;6246241;23;20066;-72
2022/10/04 06:24:10;;;;;;;5.45;4.05;;;;;;;;;;6245698;23;20508;-73
2022/10/04 06:26:44;;;;;;;6.82;5.32;;;;;;;;;;6246033;23;20427;-72
2022/10/04 06:29:15;;;;;;;4.60;2.80;;;;;;;;;;6245810;23;20502;-72
2022/10/04 06:31:49;;;;;;;5.38;2.88;;;;;;;;;;6245807;23;20019;-74
2022/10/04 06:34:22;;;;;;;6.50;3.13;;;;;;;;;;6245933;23;20021;-71
2022/10/04 06:36:49;;;;;;;7.25;4.47;;;;;;;;;;6245888;23;20027;-71
2022/10/04 06:39:23;;;;;;;10.23;5.88;;;;;;;;;;6245898;23;20012;-73
2022/10/04 06:41:53;;;;;;;5.97;2.63;;;;;;;;;;6245904;23;20016;-72
2022/10/04 06:44:21;;;;;;;6.15;2.50;;;;;;;;;;6246052;23;20487;-72
2022/10/04 06:47:05;;;;;;;7.18;2.83;;;;;;;;;;6246069;23;20016;-72
2022/10/04 06:49:56;;;;;;;9.90;6.20;;;;;;;;;;6246031;23;20096;-72
2022/10/04 06:52:26;;;;;;;6.40;3.42;;;;;;;;;;6245910;23;20346;-72
2022/10/04 06:55:20;;;;;;;4.47;2.40;;;;;;;;;;6245966;23;20024;-73
2022/10/04 06:58:07;;;;;;;5.57;3.75;;;;;;;;;;6245898;23;20020;-72
2022/10/04 07:00:45;;;;;;;11.77;6.28;;;;;;;;;;6245847;23;20070;-73
2022/10/04 07:03:17;;;;;;;4.10;2.58;;;;;;;;;;6245919;23;20013;-73
2022/10/04 07:05:53;;;;;;;7.03;3.00;;;;;;;;;;6245348;23;20087;-73
2022/10/04 07:08:31;;;;;;;3.80;2.50;;;;;;;;;;6246546;23;20086;-73
2022/10/04 07:11:05;;;;;;;3.78;2.25;;;;;;;;;;6246941;23;20016;-71
2022/10/04 07:13:47;;;;;;;5.22;2.80;;;;;;;;;;6246990;23;20066;-72
2022/10/04 07:16:18;;;;;;;9.30;3.83;;;;;;;;;;6246902;23;20066;-71
2022/10/04 07:18:48;;;;;;;4.95;2.53;;;;;;;;;;6246771;23;20016;-73
2022/10/04 07:21:16;;;;;;;7.50;5.82;;;;;;;;;;6246730;23;20020;-71
2022/10/04 07:23:55;;;;;;;11.27;8.27;;;;;;;;;;6246996;23;20016;-71
2022/10/04 07:26:41;;;;;;;43.67;32.58;;;;;;;;;;6246799;23;20016;-71
2022/10/04 07:29:26;;;;;;;29.80;23.38;;;;;;;;;;6246813;23;20026;-73
2022/10/04 07:32:03;;;;;;;22.42;17.55;;;;;;;;;;6246770;23;20442;-70
2022/10/04 07:34:32;;;;;;;12.20;8.70;;;;;;;;;;6246627;23;20383;-73
2022/10/04 07:37:02;;;;;;;7.30;3.38;;;;;;;;;;6246500;23;20011;-71
2022/10/04 07:39:32;;;;;;;7.43;3.95;;;;;;;;;;6246453;23;20012;-71
2022/10/04 07:42:14;;;;;;;6.80;4.97;;;;;;;;;;6246735;23;20020;-73
2022/10/04 07:44:45;;;;;;;7.47;4.57;;;;;;;;;;6246543;23;20023;-73
2022/10/04 07:47:19;;;;;;;4.25;3.03;;;;;;;;;;6246565;23;20040;-72
2022/10/04 07:49:52;;;;;;;10.32;6.28;;;;;;;;;;6246284;23;20020;-71
2022/10/04 07:52:28;;;;;;;9.25;4.75;;;;;;;;;;6246539;23;20008;-70
2022/10/04 07:54:59;;;;;;;10.13;2.88;;;;;;;;;;6219873;23;20019;-70
2022/10/04 07:57:26;;;;;;;5.88;3.00;;;;;;;;;;6219771;23;20031;-73
2022/10/04 08:00:09;;;;;;;6.15;3.35;;;;;;;;;;6219308;23;20300;-71
2022/10/04 08:02:46;;;;;;;4.82;3.45;;;;;;;;;;6220442;23;20016;-71
2022/10/04 08:05:20;;;;;;;6.53;3.55;;;;;;;;;;6246284;23;20062;-71
2022/10/04 08:07:48;;;;;;;4.43;3.17;;;;;;;;;;6246548;23;20224;-73
2022/10/04 08:10:22;;;;;;;4.22;2.78;;;;;;;;;;6246160;23;20450;-71
2022/10/04 08:12:52;;;;;;;6.25;2.60;;;;;;;;;;6246143;23;20012;-73
2022/10/04 08:15:20;;;;;;;4.57;2.30;;;;;;;;;;6246266;23;20016;-73
2022/10/04 08:17:50;;;;;;;4.97;2.97;;;;;;;;;;6246088;23;20346;-73
2022/10/04 08:20:33;;;;;;;2.95;2.17;;;;;;;;;;6246138;23;20047;-71
2022/10/04 08:23:19;;;;;;;5.07;3.30;;;;;;;;;;6246419;23;20083;-71
2022/10/04 08:25:49;;;;;;;4.47;2.83;;;;;;;;;;6245753;23;20443;-71
2022/10/04 08:31:26;;;;;;;5.18;1.80;;;;;;;;;;6246098;23;20380;-73
2022/10/04 08:33:56;;;;;;;3.05;2.10;;;;;;;;;;6191154;23;20016;-73
2022/10/04 08:36:30;;;;;;;2.55;2.08;;;;;;;;;;6246175;23;20020;-73
2022/10/04 08:38:59;;;;;;;4.20;1.73;;;;;;;;;;6245936;23;20512;-73
2022/10/04 08:41:45;;;;;;;2.97;1.70;;;;;;;;;;6218794;23;20402;-73
2022/10/04 08:44:31;;;;;;;3.72;2.00;;;;;;;;;;6245776;23;20389;-73
2022/10/04 08:47:20;;;;;;;3.65;1.48;;;;;;;;;;6245754;23;20373;-72
2022/10/04 08:49:48;;;;;;;3.60;2.08;;;;;;;;;;6245855;23;20020;-73
2022/10/04 08:52:28;;;;;;;3.53;2.40;;;;;;;;;;6246193;23;20083;-73
2022/10/04 08:54:59;;;;;;;3.53;2.03;;;;;;;;;;6245940;23;20507;-73
2022/10/04 08:57:45;;;;;;;5.03;2.00;;;;;;;;;;6245927;23;20307;-73
2022/10/04 09:00:28;;;;;;;16.98;2.95;;;;;;;;;;6246108;23;20146;-73
2022/10/04 09:03:00;;;;;;;3.55;1.90;;;;;;;;;;6245866;23;20039;-73
2022/10/04 09:05:37;;;;;;;2.45;1.80;;;;;;;;;;6219418;23;20371;-73
2022/10/04 09:08:25;;;;;;;2.92;1.65;;;;;;;;;;6245844;23;20020;-73
2022/10/04 09:11:03;;;;;;;3.83;1.50;;;;;;;;;;6219215;23;20460;-73
2022/10/04 09:13:46;;;;;;;6.03;2.28;;;;;;;;;;6245763;23;20020;-72
2022/10/04 09:16:13;;;;;;;4.88;1.95;;;;;;;;;;6245652;23;20426;-72
2022/10/04 09:18:48;;;;;;;3.38;2.22;;;;;;;;;;6245811;23;20048;-72
2022/10/04 09:21:27;;;;;;;7.05;3.97;;;;;;;;;;6219018;23;20046;-72
2022/10/04 09:24:03;;;;;;;14.85;10.32;;;;;;;;;;6245638;23;20330;-73
2022/10/04 09:26:40;;;;;;;3.42;2.78;;;;;;;;;;6245727;23;20402;-72
2022/10/04 09:29:20;;;;;;;4.55;3.33;;;;;;;;;;6245559;23;20016;-73
2022/10/04 09:31:51;;;;;;;4.70;2.92;;;;;;;;;;6218584;23;20074;-72
2022/10/04 09:34:31;;;;;;;9.43;5.35;;;;;;;;;;6245602;23;20026;-72
2022/10/04 09:37:22;;;;;;;14.82;9.50;;;;;;;;;;6245265;23;20443;-73
2022/10/04 09:40:05;;;;;;;14.13;9.93;;;;;;;;;;6245450;23;20027;-72
2022/10/04 09:42:42;;;;;;;21.75;16.35;;;;;;;;;;6245295;23;20099;-72
2022/10/04 09:45:16;;;;;;;40.30;31.33;;;;;;;;;;6245472;23;20020;-72
2022/10/04 09:47:56;;;;;;;15.65;11.60;;;;;;;;;;6245390;23;20024;-72
2022/10/04 09:50:41;;;;;;;20.52;16.58;;;;;;;;;;6245490;23;20027;-72
2022/10/04 09:53:27;;;;;;;7.40;5.13;;;;;;;;;;6245465;23;20043;-72
2022/10/04 09:56:08;;;;;;;5.93;4.28;;;;;;;;;;6245696;23;20019;-72
2022/10/04 09:58:42;;;;;;;10.35;6.10;;;;;;;;;;6245264;23;20044;-72
2022/10/04 10:01:27;;;;;;;7.97;5.20;;;;;;;;;;6218731;23;20023;-72
2022/10/04 10:04:20;;;;;;;5.32;2.83;;;;;;;;;;6245220;23;20092;-72
2022/10/04 10:06:59;;;;;;;10.55;7.45;;;;;;;;;;6245140;23;20020;-72
2022/10/04 10:15:33;;;;;;;2.22;1.30;;;;;;;;;;6245293;23;20336;-72
2022/10/04 10:18:08;;;;;;;3.00;2.00;;;;;;;;;;6245345;23;20023;-72
2022/10/04 10:20:55;;;;;;;3.60;1.80;;;;;;;;;;6245207;23;20048;-72
2022/10/04 10:23:33;;;;;;;2.65;1.80;;;;;;;;;;6245309;23;20016;-72
2022/10/04 10:26:23;;;;;;;5.65;1.90;;;;;;;;;;6245064;23;20016;-73
2022/10/04 10:28:57;;;;;;;3.15;1.45;;;;;;;;;;6245428;23;20086;-72
2022/10/04 10:31:34;;;;;;;2.42;1.80;;;;;;;;;;6245167;23;20024;-72
2022/10/04 10:34:20;;;;;;;3.35;1.98;;;;;;;;;;6245131;23;20338;-72
2022/10/04 10:37:07;;;;;;;3.10;1.60;;;;;;;;;;6245042;23;20012;-72
2022/10/04 10:39:35;;;;;;;4.68;1.85;;;;;;;;;;6244958;23;20031;-72
2022/10/04 10:42:15;;;;;;;3.33;2.38;;;;;;;;;;6246225;23;20016;-72
2022/10/04 10:45:01;;;;;;;3.55;2.03;;;;;;;;;;6246992;23;20086;-73
2022/10/04 10:47:47;;;;;;;5.93;3.25;;;;;;;;;;6246954;23;20039;-72
2022/10/04 10:50:19;;;;;;;2.92;1.85;;;;;;;;;;6246908;23;20016;-72
2022/10/04 10:53:06;;;;;;;5.00;1.88;;;;;;;;;;6246932;23;20016;-72
2022/10/04 10:55:52;;;;;;;6.28;1.70;;;;;;;;;;6246664;23;20473;-72
2022/10/04 10:58:28;;;;;;;2.00;1.73;;;;;;;;;;6246808;23;20018;-72
2022/10/04 11:00:59;;;;;;;3.47;2.38;;;;;;;;;;6247032;23;20016;-73
2022/10/04 11:03:35;;;;;;;4.75;1.85;;;;;;;;;;6220100;23;20020;-72
2022/10/04 11:06:18;;;;;;;3.22;2.10;;;;;;;;;;6246594;23;20016;-73
2022/10/04 11:09:04;;;;;;;2.35;1.48;;;;;;;;;;6219758;23;20449;-73
2022/10/04 11:11:40;;;;;;;2.20;1.83;;;;;;;;;;6246816;23;20023;-72
2022/10/04 11:14:16;;;;;;;1.45;1.35;;;;;;;;;;6246665;23;20012;-73
2022/10/04 11:16:46;;;;;;;3.25;1.90;;;;;;;;;;6219801;23;20346;-72
2022/10/04 11:19:32;;;;;;;3.92;3.10;;;;;;;;;;6246866;23;20012;-72
2022/10/04 11:22:09;;;;;;;3.30;2.10;;;;;;;;;;6220478;23;20020;-72
2022/10/04 11:24:46;;;;;;;4.90;2.13;;;;;;;;;;6246766;23;20022;-73
2022/10/04 11:27:16;;;;;;;3.75;2.03;;;;;;;;;;6246727;23;20454;-72
2022/10/04 11:29:44;;;;;;;2.90;2.10;;;;;;;;;;6246593;23;20042;-72
2022/10/04 11:32:31;;;;;;;3.53;1.65;;;;;;;;;;6219905;23;20011;-73
2022/10/04 11:35:07;;;;;;;3.85;1.60;;;;;;;;;;6246479;23;20020;-72
2022/10/04 11:37:54;;;;;;;2.00;1.08;;;;;;;;;;6219700;23;20020;-73
2022/10/04 11:40:24;;;;;;;2.70;1.30;;;;;;;;;;6246540;23;20079;-72
2022/10/04 11:42:51;;;;;;;3.85;1.27;;;;;;;;;;6246550;23;20023;-72
2022/10/04 11:45:22;;;;;;;2.97;1.30;;;;;;;;;;6246933;23;20016;-72
2022/10/04 11:47:55;;;;;;;2.67;1.95;;;;;;;;;;6246648;23;20027;-72
2022/10/04 11:50:26;;;;;;;2.97;1.40;;;;;;;;;;6246657;23;20026;-72
2022/10/04 11:53:12;;;;;;;3.85;1.55;;;;;;;;;;6246227;23;20013;-72
2022/10/04 11:56:03;;;;;;;4.38;2.47;;;;;;;;;;6246532;23;20022;-73
2022/10/04 11:58:40;;;;;;;6.25;2.90;;;;;;;;;;6219988;23;20016;-72
2022/10/04 12:01:14;;;;;;;14.88;7.82;;;;;;;;;;6246203;23;20073;-72
2022/10/04 12:03:44;;;;;;;5.47;3.05;;;;;;;;;;6219120;23;20020;-72
2022/10/04 12:06:33;;;;;;;5.80;2.65;;;;;;;;;;6245692;23;20016;-72
2022/10/04 12:09:11;;;;;;;4.38;2.47;;;;;;;;;;6219029;23;20394;-72
2022/10/04 12:14:44;;;;;;;7.97;3.83;;;;;;;;;;6246179;23;20023;-72
2022/10/04 12:17:11;;;;;;;4.90;3.08;;;;;;;;;;6246142;23;20016;-72
2022/10/04 12:19:51;;;;;;;4.95;2.65;;;;;;;;;;6246339;23;20012;-72
2022/10/04 12:22:37;;;;;;;4.97;1.60;;;;;;;;;;6246146;23;20024;-72
2022/10/04 12:25:10;;;;;;;5.15;2.40;;;;;;;;;;6245859;23;20020;-72
2022/10/04 12:27:47;;;;;;;6.68;3.10;;;;;;;;;;6245906;23;20016;-72
2022/10/04 12:30:14;;;;;;;2.92;1.30;;;;;;;;;;6245950;23;20022;-72
2022/10/04 12:32:48;;;;;;;1.77;1.50;;;;;;;;;;6246039;23;20027;-73
2022/10/04 12:35:24;;;;;;;8.25;5.55;;;;;;;;;;6245979;23;20020;-75
2022/10/04 12:37:52;;;;;;;4.45;1.80;;;;;;;;;;6246147;23;20023;-75
2022/10/04 12:40:23;;;;;;;3.70;2.50;;;;;;;;;;6245511;23;20406;-75
2022/10/04 12:42:58;;;;;;;5.38;2.20;;;;;;;;;;6219345;23;20485;-75
2022/10/04 12:45:26;;;;;;;;;;;;;;;;;;6220077;23;20020;-75
2022/10/04 12:47:56;;;;;;;14.65;9.13;;;;;;;;;;6245694;23;19938;-75
2022/10/04 12:50:36;;;;;;;29.20;18.83;;;;;;;;;;6245772;23;20099;-75
2022/10/04 12:53:15;;;;;;;10.50;6.65;;;;;;;;;;6245951;23;20090;-75
2022/10/04 12:55:46;;;;;;;93.95;66.60;;;;;;;;;;6245852;23;20016;-75
2022/10/04 12:58:34;;;;;;;77.05;55.38;;;;;;;;;;6246015;23;20043;-75
2022/10/04 13:01:14;;;;;;;47.25;33.88;;;;;;;;;;6185661;23;20027;-75
2022/10/04 13:03:54;;;;;;;15.23;11.18;;;;;;;;;;6245822;23;20020;-75
2022/10/04 13:06:21;;;;;;;12.60;8.63;;;;;;;;;;6218900;23;20019;-75
2022/10/04 13:09:05;;;;;;;11.88;4.75;;;;;;;;;;6245572;23;20039;-75
2022/10/04 13:11:41;;;;;;;4.93;1.80;;;;;;;;;;6245760;23;20016;-75
2022/10/04 13:14:27;;;;;;;6.05;3.88;;;;;;;;;;6245631;23;20023;-75
2022/10/04 13:17:10;;;;;;;52.42;37.83;;;;;;;;;;6245515;23;20016;-75
2022/10/04 13:20:00;;;;;;;10.98;6.70;;;;;;;;;;6245472;23;20335;-75
2022/10/04 13:22:28;;;;;;;35.38;25.35;;;;;;;;;;6245829;23;20020;-75
2022/10/04 13:25:29;;;;;;;14.30;10.13;;;;;;;;;;6245782;23;20032;-75
2022/10/04 13:27:59;;;;;;;16.05;10.93;;;;;;;;;;6245464;23;20020;-75
2022/10/04 13:30:46;;;;;;;5.72;3.78;;;;;;;;;;6245777;23;20020;-75
2022/10/04 13:33:23;;;;;;;5.43;3.20;;;;;;;;;;6245524;23;20024;-75
2022/10/04 13:35:59;;;;;;;8.82;5.10;;;;;;;;;;6245330;23;20016;-75
2022/10/04 13:38:27;;;;;;;9.07;3.40;;;;;;;;;;6245881;23;20020;-75
2022/10/04 13:41:09;;;;;;;5.38;3.55;;;;;;;;;;6245492;23;20019;-74
2022/10/04 13:43:56;;;;;;;103.00;73.85;;;;;;;;;;6245157;23;20040;-75
2022/10/04 13:46:23;;;;;;;61.33;45.45;;;;;;;;;;6245087;23;20035;-74
2022/10/04 13:49:05;;;;;;;25.30;18.67;;;;;;;;;;6245429;23;20023;-74
2022/10/04 13:51:46;;;;;;;11.82;7.10;;;;;;;;;;6245548;23;20027;-75
2022/10/04 13:57:12;;;;;;;19.25;14.18;;;;;;;;;;6245793;23;20342;-74
2022/10/04 13:59:45;;;;;;;22.38;16.05;;;;;;;;;;6218940;23;20019;-75
2022/10/04 14:02:16;;;;;;;25.55;19.10;;;;;;;;;;6245600;23;20394;-75
2022/10/04 14:04:58;;;;;;;50.08;37.10;;;;;;;;;;6245326;23;20477;-75
2022/10/04 14:07:36;;;;;;;50.53;36.55;;;;;;;;;;6245419;23;20456;-75
2022/10/04 14:10:09;;;;;;;8.27;4.93;;;;;;;;;;6245062;23;20016;-75
2022/10/04 14:12:48;;;;;;;11.45;6.93;;;;;;;;;;6245179;23;20381;-75
2022/10/04 14:15:16;;;;;;;3.92;2.40;;;;;;;;;;6245281;23;20020;-74
2022/10/04 14:17:56;;;;;;;8.10;3.58;;;;;;;;;;6245160;23;20016;-75
2022/10/04 14:20:42;;;;;;;26.17;17.42;;;;;;;;;;6245320;23;20020;-75
2022/10/04 14:23:22;;;;;;;7.53;4.10;;;;;;;;;;6245143;23;20021;-75
2022/10/04 14:26:06;;;;;;;3.72;2.45;;;;;;;;;;6245098;23;20099;-74
2022/10/04 14:28:34;;;;;;;11.68;8.55;;;;;;;;;;6245201;23;20039;-74
2022/10/04 14:31:20;;;;;;;20.40;14.95;;;;;;;;;;6244559;23;20361;-74
2022/10/04 14:34:00;;;;;;;28.50;21.77;;;;;;;;;;6243317;23;20022;-73
2022/10/04 14:36:53;;;;;;;5.20;2.45;;;;;;;;;;6242486;23;20457;-73
2022/10/04 14:39:20;;;;;;;8.93;6.22;;;;;;;;;;6243079;23;20036;-74
2022/10/04 14:41:51;;;;;;;8.05;5.03;;;;;;;;;;6216621;23;20118;-73
2022/10/04 14:44:31;;;;;;;4.55;3.20;;;;;;;;;;6244437;23;20020;-74
2022/10/04 14:47:06;;;;;;;12.00;8.68;;;;;;;;;;6244104;23;20125;-73
2022/10/04 14:49:40;;;;;;;7.43;2.85;;;;;;;;;;6244251;23;20020;-73
2022/10/04 14:52:26;;;;;;;4.55;2.70;;;;;;;;;;6244304;23;20022;-73
2022/10/04 14:54:55;;;;;;;25.30;19.02;;;;;;;;;;6244002;23;20023;-73
2022/10/04 14:57:52;;;;;;;40.35;31.15;;;;;;;;;;6244986;23;20032;-73
2022/10/04 15:00:20;;;;;;;9.25;3.97;;;;;;;;;;6244503;23;20020;-73
2022/10/04 15:03:05;;;;;;;5.20;3.13;;;;;;;;;;6244337;23;20047;-73
2022/10/04 15:05:45;;;;;;;22.35;16.92;;;;;;;;;;6244752;23;20066;-74
2022/10/04 15:08:25;;;;;;;17.10;13.18;;;;;;;;;;6244564;23;20079;-74
2022/10/04 15:10:54;;;;;;;13.13;6.70;;;;;;;;;;6217933;23;20023;-75
2022/10/04 15:13:21;;;;;;;19.90;15.93;;;;;;;;;;6244460;23;20016;-74
2022/10/04 15:15:59;;;;;;;23.75;17.38;;;;;;;;;;6244226;23;20016;-74
2022/10/04 15:18:27;;;;;;;24.20;19.00;;;;;;;;;;6244722;23;20016;-74
2022/10/04 15:21:01;;;;;;;27.15;20.17;;;;;;;;;;6244441;23;20089;-75
2022/10/04 15:23:37;;;;;;;30.33;23.30;;;;;;;;;;6243964;23;20091;-75
2022/10/04 15:26:23;;;;;;;21.13;15.40;;;;;;;;;;6244398;23;20016;-75
2022/10/04 15:28:53;;;;;;;6.00;3.63;;;;;;;;;;6245697;23;20044;-75
2022/10/04 15:31:27;;;;;;;10.57;4.20;;;;;;;;;;6246395;23;20083;-75
2022/10/04 15:34:00;;;;;;;8.27;4.00;;;;;;;;;;6246675;23;20044;-74
2022/10/04 15:36:37;;;;;;;7.68;3.50;;;;;;;;;;6246209;23;20023;-74
2022/10/04 15:39:34;;;;;;;7.13;2.80;;;;;;;;;;6245934;23;20385;-74
2022/10/04 15:42:20;;;;;;;5.00;3.03;;;;;;;;;;6139681;23;20022;-74
2022/10/04 15:45:00;;;;;;;4.68;1.83;;;;;;;;;;6246054;23;20023;-73
2022/10/04 15:47:31;;;;;;;4.25;1.80;;;;;;;;;;6246225;23;20022;-74